Logo AVAMET
Benvolgut visitant, si us plau, ingressa Recuperar contrasenya

Inforatge Borriana Santa Bàrbera

Dades diàries. Acumulats / Últims 30 dies disponibles

Data Temperatura (°C) Humitat rel. (%) Pressió rel. (hPa) Vent (km/h) Precipitació
Mínima Mitjana Màxima Amplitud
tèrmica
Mínima Mitjana Màxima Mínima Mitjana Màxima Predom. Mitjana Ràfega
màxima
Total
(mm)
Índex-n
Mínima Mitjana Màxima Mínima Mitjana Màxima n
0 a 1
P0 max
mm 5'
Dades mensuals acumulades fins l'últim dia disponible
05/2019 8,3 12,9 15,6 17,0 16,3 21,0 28,6 20,3 24 75 95 1.003 1.016 1.027   7,4 56,3 3,2
Dades anuals acumulades fins l'últim dia disponible
2019 0,7 8,2 15,6 12,9 11,8 17,7 28,6 27,9 18 70 97 992 1.020 1.038   8,2 77,8 56,2
Últims 30 dies disponibles
23-05-2019 13,1     18,5     22,5 9,4 64 82 92 1.017 1.019 1.021 SE 5,6 22,6 0,0
22-05-2019 12,4     16,6     20,3 7,9 80 88 95 1.018 1.020 1.021 S 6,4 24,1 0,2
21-05-2019 12,9     16,7     20,1 7,2 66 83 93 1.016 1.017 1.019 S 6,6 29,6 2,0 0,42 0,40
20-05-2019 14,7     19,1     21,3 6,6 54 67 81 1.014 1.015 1.017 SSE 4,2 29,6 0,0
18-05-2019 14,7     15,4     16,3 1,6 54 56 58 1.011 1.011 1.011 ONO 5,4 13,0 0,0
17-05-2019 14,6     19,1     22,9 8,3 38 57 90 1.003 1.006 1.011 OSO 14,9 53,7 0,0
16-05-2019 15,6     17,6     20,7 5,1 71 79 85 1.008 1.013 1.018 SSE 3,9 29,6 0,0
15-05-2019 12,8     16,9     19,9 7,1 76 83 92 1.013 1.015 1.018 ESE 15,2 45,0 0,0
14-05-2019 11,2     16,2     21,7 10,5 52 77 92 1.016 1.020 1.024 SSO 4,7 27,8 0,0
13-05-2019 13,2     17,4     21,5 8,3 56 81 95 1.021 1.023 1.024 SSE 6,1 25,9 0,0
12-05-2019 12,7     17,6     21,1 8,4 38 68 94 1.021 1.025 1.027 S 5,3 25,9 0,0
11-05-2019 14,8     18,7     22,1 7,3 67 83 95 1.017 1.020 1.026 ESE 10,1 35,4 0,0
10-05-2019 14,1     19,3     26,5 12,4 50 78 92 1.013 1.014 1.016 SSE 11,5 35,4 0,0
09-05-2019 15,4     20,2     24,8 9,4 30 62 87 1.012 1.013 1.015 SSE 9,8 35,4 0,0
08-05-2019 15,4     20,7     28,6 13,2 39 71 95 1.010 1.012 1.017 SSO 9,7 56,3 0,0
07-05-2019 10,8     15,6     19,2 8,4 72 84 93 1.016 1.019 1.021 S 6,4 25,9 0,0
06-05-2019 8,3     13,9     17,2 8,9 53 73 90 1.019 1.021 1.022 S 6,6 27,8 0,0
05-05-2019 11,1     15,5     19,4 8,3 24 59 88 1.015 1.017 1.019 SSO 6,5 25,9 0,0
04-05-2019 8,8     14,4     19,2 10,4 43 71 95 1.013 1.014 1.015 SO 7,7 32,2 0,0
03-05-2019 10,3     13,6     17,8 7,5 64 84 94 1.013 1.015 1.017 SSO 7,3 38,9 1,0
02-05-2019 13,7     16,3     19,6 5,9 62 83 93 1.016 1.017 1.019 SE 5,4 22,6 0,0
01-05-2019 12,5     15,5     19,2 6,7 74 87 95 1.016 1.017 1.019 SSO 3,7 22,6 0,0
30-04-2019 11,4     15,2     18,8 7,4 75 87 95 1.018 1.019 1.021 SSO 4,9 25,9 0,0
29-04-2019 9,1     14,3     18,4 9,3 72 82 90 1.020 1.022 1.023 SSO 6,0 22,6 0,0
28-04-2019 11,4     15,1     19,4 8,0 58 75 90 1.022 1.025 1.027 S 6,4 27,8 0,0
27-04-2019 11,1     15,3     20,4 9,3 41 69 91 1.026 1.027 1.028 SSO 6,9 24,1 0,0
26-04-2019 10,4     15,5     20,6 10,2 35 61 79 1.018 1.023 1.027 SSO 7,4 25,9 0,0
25-04-2019 13,5     17,5     22,9 9,4 34 64 91 1.009 1.013 1.018 SO 14,6 46,7 0,0
24-04-2019 9,8     14,3     18,9 9,1 46 68 88 1.004 1.009 1.012 SSO 11,4 50,0 0,0
23-04-2019 10,1     14,5     21,1 11,0 51 82 95 999 1.001 1.004 SO 7,4 43,5 0,8
Últims 13 mesos disponibles
04/2019 5,8 10,4 14,2 14,5 15,2 18,7 24,8 19,0 51 72 90 1.001 1.015 1.027 SSO 11,1 70,9 35,4
03/2019 5,7 8,0 10,8 13,1 13,1 17,8 24,4 18,7 53 69 87 1.013 1.024 1.032 SSO 7,6 50,0 15,0
02/2019 0,7 5,7 10,4 10,6 13,2 16,1 20,5 19,8 29 73 88 994 1.026 1.036 SO 7,2 75,9 0,4
01/2019 2,2 5,0 7,9 10,1 11,8 15,9 22,2 20,0 45 64 83 1.001 1.020 1.032 OSO 7,5 77,8 2,2
12/2018 5,1 7,7 10,6 11,8 10,2 16,6 21,2 16,1 57 79 92 1.009 1.026 1.032 OSO 5,2 59,6 12,8
11/2018 6,8 10,5 15,6 14,0 14,8 18,5 22,3 15,5 61 79 92 1.003 1.016 1.025 OSO 6,8 55,6 116,2
10/2018 6,1 13,8 18,0 17,9 15,0 22,2 26,2 20,1 47 76 94 1.001 1.016 1.027 SO 6,9 64,8 225,2
09/2018 16,1 19,7 22,1 23,5 24,2 27,2 29,9 13,8 63 80 91 1.014 1.021 1.031 5,9 45,0 121,6
08/2018 19,0 21,6 23,6 25,4 26,3 29,0 31,1 12,1 65 76 85 1.014 1.019 1.023 5,7 59,6 10,0
Tots els anys disponibles
Temperatura (°C)
Humitat relativa (%)
Velocitat del vent i ràfega màxima (km/h)
Direcció del vent (°)
Pressió (hPa)
Precipitació (mm)
Nota sobre les dades: s'avisa a l'usuari de la provisionalitat i no oficialitat d'aquestes dades
Logo AVAMET blanc
Web allotjada a Sollutia
Llicència de Creative CommonsLa web d'AVAMET i els seus continguts estan subjectes a una llicència de
Reconeixement - No Comercial - Compartir igual
Properes estacions: Altea - Club Nàutic d'Altea (Soci), Ontinyent - El Pilar (Soci), Ares del Maestrat (Ajuntament Soci), Catadau - L'Altet (Inforatge)     - - - - -      Últimes estacions: Asp - Poliesportiu (Soci), Jacarilla - centro (MeteOrihuela), Elx - Maitino/Vallverda/Velarde/Matola/Ferriol (Soci TiempoElche.com), Orihuela - Playa Flamenca (MeteOrihuela), - - -